sensor_id;sensor_type;location;lat;lon;timestamp;pressure;altitude;pressure_sealevel;temperature;humidity
12987;BME280;58897;51.960;5.582;2023-06-19T00:02:24;100415.97;;;22.10;100.00
12987;BME280;58897;51.960;5.582;2023-06-19T00:04:50;100410.41;;;22.05;100.00
12987;BME280;58897;51.960;5.582;2023-06-19T00:07:17;100416.63;;;22.01;100.00
12987;BME280;58897;51.960;5.582;2023-06-19T00:09:43;100423.53;;;22.03;100.00
12987;BME280;58897;51.960;5.582;2023-06-19T00:12:10;100417.53;;;22.06;100.00
12987;BME280;58897;51.960;5.582;2023-06-19T00:14:37;100419.28;;;21.96;100.00
12987;BME280;58897;51.960;5.582;2023-06-19T00:17:04;100417.94;;;21.98;100.00
12987;BME280;58897;51.960;5.582;2023-06-19T00:19:32;100425.47;;;22.03;100.00
12987;BME280;58897;51.960;5.582;2023-06-19T00:22:03;100421.88;;;22.02;100.00
12987;BME280;58897;51.960;5.582;2023-06-19T00:24:30;100422.13;;;22.01;100.00
12987;BME280;58897;51.960;5.582;2023-06-19T00:26:56;100434.13;;;21.95;100.00
12987;BME280;58897;51.960;5.582;2023-06-19T00:29:29;100435.09;;;21.89;100.00
12987;BME280;58897;51.960;5.582;2023-06-19T00:31:55;100434.63;;;21.92;100.00
12987;BME280;58897;51.960;5.582;2023-06-19T00:34:22;100443.72;;;21.81;100.00
12987;BME280;58897;51.960;5.582;2023-06-19T00:36:51;100442.88;;;21.80;100.00
12987;BME280;58897;51.960;5.582;2023-06-19T00:39:23;100458.31;;;21.81;100.00
12987;BME280;58897;51.960;5.582;2023-06-19T00:41:51;100462.97;;;21.81;100.00
12987;BME280;58897;51.960;5.582;2023-06-19T00:44:18;100461.69;;;21.72;100.00
12987;BME280;58897;51.960;5.582;2023-06-19T00:46:45;100461.00;;;21.65;100.00
12987;BME280;58897;51.960;5.582;2023-06-19T00:49:13;100466.38;;;21.60;100.00
12987;BME280;58897;51.960;5.582;2023-06-19T00:51:40;100466.38;;;21.60;100.00
12987;BME280;58897;51.960;5.582;2023-06-19T00:54:07;100458.41;;;21.58;100.00
12987;BME280;58897;51.960;5.582;2023-06-19T00:56:37;100457.94;;;21.49;100.00
12987;BME280;58897;51.960;5.582;2023-06-19T00:59:08;100473.34;;;21.50;100.00
12987;BME280;58897;51.960;5.582;2023-06-19T01:01:37;100475.25;;;21.50;100.00
12987;BME280;58897;51.960;5.582;2023-06-19T01:04:04;100474.31;;;21.44;100.00
12987;BME280;58897;51.960;5.582;2023-06-19T01:06:56;100486.38;;;21.43;100.00
12987;BME280;58897;51.960;5.582;2023-06-19T01:09:28;100488.31;;;21.43;100.00
12987;BME280;58897;51.960;5.582;2023-06-19T01:12:04;100471.38;;;21.34;100.00
12987;BME280;58897;51.960;5.582;2023-06-19T01:14:39;100481.50;;;21.34;100.00
12987;BME280;58897;51.960;5.582;2023-06-19T01:17:09;100479.25;;;21.31;100.00
12987;BME280;58897;51.960;5.582;2023-06-19T01:19:36;100492.13;;;21.30;100.00
12987;BME280;58897;51.960;5.582;2023-06-19T01:22:04;100495.88;;;21.24;100.00
12987;BME280;58897;51.960;5.582;2023-06-19T01:24:31;100485.34;;;21.21;100.00
12987;BME280;58897;51.960;5.582;2023-06-19T01:26:57;100491.34;;;21.18;100.00
12987;BME280;58897;51.960;5.582;2023-06-19T01:29:24;100497.19;;;21.10;100.00
12987;BME280;58897;51.960;5.582;2023-06-19T01:31:59;100497.66;;;21.07;100.00
12987;BME280;58897;51.960;5.582;2023-06-19T01:34:29;100493.47;;;21.05;100.00
12987;BME280;58897;51.960;5.582;2023-06-19T01:36:56;100495.38;;;20.92;100.00
12987;BME280;58897;51.960;5.582;2023-06-19T01:39:24;100502.53;;;20.93;100.00
12987;BME280;58897;51.960;5.582;2023-06-19T01:41:52;100505.78;;;20.90;100.00
12987;BME280;58897;51.960;5.582;2023-06-19T01:44:20;100505.88;;;20.84;100.00
12987;BME280;58897;51.960;5.582;2023-06-19T01:46:48;100504.81;;;20.85;100.00
12987;BME280;58897;51.960;5.582;2023-06-19T01:49:16;100514.59;;;20.81;100.00
12987;BME280;58897;51.960;5.582;2023-06-19T01:51:42;100506.22;;;20.76;100.00
12987;BME280;58897;51.960;5.582;2023-06-19T01:54:09;100512.81;;;20.75;100.00
12987;BME280;58897;51.960;5.582;2023-06-19T01:56:37;100515.91;;;20.67;100.00
12987;BME280;58897;51.960;5.582;2023-06-19T01:59:04;100520.28;;;20.56;100.00
12987;BME280;58897;51.960;5.582;2023-06-19T02:01:30;100517.81;;;20.66;100.00
12987;BME280;58897;51.960;5.582;2023-06-19T02:03:57;100526.97;;;20.49;100.00
12987;BME280;58897;51.960;5.582;2023-06-19T02:06:24;100521.59;;;20.54;100.00
12987;BME280;58897;51.960;5.582;2023-06-19T02:08:50;100521.81;;;20.52;100.00
12987;BME280;58897;51.960;5.582;2023-06-19T02:11:17;100528.03;;;20.48;100.00
12987;BME280;58897;51.960;5.582;2023-06-19T02:13:43;100532.78;;;20.41;100.00
12987;BME280;58897;51.960;5.582;2023-06-19T02:16:10;100528.00;;;20.36;100.00
12987;BME280;58897;51.960;5.582;2023-06-19T02:18:36;100538.59;;;20.33;100.00
12987;BME280;58897;51.960;5.582;2023-06-19T02:21:03;100548.69;;;20.20;100.00
12987;BME280;58897;51.960;5.582;2023-06-19T02:23:29;100552.69;;;20.18;100.00
12987;BME280;58897;51.960;5.582;2023-06-19T02:25:56;100556.59;;;20.28;100.00
12987;BME280;58897;51.960;5.582;2023-06-19T02:28:22;100550.41;;;20.33;100.00
12987;BME280;58897;51.960;5.582;2023-06-19T02:30:49;100551.59;;;20.25;100.00
12987;BME280;58897;51.960;5.582;2023-06-19T02:33:15;100543.97;;;20.27;100.00
12987;BME280;58897;51.960;5.582;2023-06-19T02:35:42;100551.25;;;20.15;100.00
12987;BME280;58897;51.960;5.582;2023-06-19T02:38:08;100542.09;;;20.21;100.00
12987;BME280;58897;51.960;5.582;2023-06-19T02:40:35;100550.88;;;20.30;100.00
12987;BME280;58897;51.960;5.582;2023-06-19T02:43:01;100546.69;;;20.27;100.00
12987;BME280;58897;51.960;5.582;2023-06-19T02:45:28;100557.72;;;20.21;100.00
12987;BME280;58897;51.960;5.582;2023-06-19T02:47:54;100561.09;;;20.23;100.00
12987;BME280;58897;51.960;5.582;2023-06-19T02:50:21;100565.31;;;20.25;100.00
12987;BME280;58897;51.960;5.582;2023-06-19T02:52:48;100563.91;;;20.16;100.00
12987;BME280;58897;51.960;5.582;2023-06-19T02:55:15;100558.41;;;20.16;100.00
12987;BME280;58897;51.960;5.582;2023-06-19T02:57:41;100563.06;;;20.16;100.00
12987;BME280;58897;51.960;5.582;2023-06-19T03:00:08;100566.56;;;20.23;100.00
12987;BME280;58897;51.960;5.582;2023-06-19T03:02:36;100563.53;;;20.13;100.00
12987;BME280;58897;51.960;5.582;2023-06-19T03:05:03;100569.38;;;20.16;100.00
12987;BME280;58897;51.960;5.582;2023-06-19T03:07:29;100571.44;;;20.21;100.00
12987;BME280;58897;51.960;5.582;2023-06-19T03:09:56;100570.22;;;20.17;100.00
12987;BME280;58897;51.960;5.582;2023-06-19T03:12:22;100578.69;;;20.15;100.00
12987;BME280;58897;51.960;5.582;2023-06-19T03:14:49;100570.84;;;20.19;100.00
12987;BME280;58897;51.960;5.582;2023-06-19T03:17:15;100568.34;;;20.17;100.00
12987;BME280;58897;51.960;5.582;2023-06-19T03:19:42;100571.84;;;20.24;100.00
12987;BME280;58897;51.960;5.582;2023-06-19T03:22:08;100578.78;;;20.09;100.00
12987;BME280;58897;51.960;5.582;2023-06-19T03:24:35;100579.31;;;20.17;100.00
12987;BME280;58897;51.960;5.582;2023-06-19T03:27:02;100578.22;;;20.18;100.00
12987;BME280;58897;51.960;5.582;2023-06-19T03:29:28;100575.94;;;20.15;100.00
12987;BME280;58897;51.960;5.582;2023-06-19T03:31:55;100578.91;;;20.14;100.00
12987;BME280;58897;51.960;5.582;2023-06-19T03:34:21;100577.22;;;20.13;100.00
12987;BME280;58897;51.960;5.582;2023-06-19T03:36:48;100583.06;;;20.05;100.00
12987;BME280;58897;51.960;5.582;2023-06-19T03:39:14;100578.84;;;20.02;100.00
12987;BME280;58897;51.960;5.582;2023-06-19T03:41:41;100587.84;;;20.09;100.00
12987;BME280;58897;51.960;5.582;2023-06-19T03:44:07;100587.78;;;19.98;100.00
12987;BME280;58897;51.960;5.582;2023-06-19T03:46:34;100583.53;;;20.02;100.00
12987;BME280;58897;51.960;5.582;2023-06-19T03:49:00;100587.25;;;20.07;100.00
12987;BME280;58897;51.960;5.582;2023-06-19T03:51:29;100598.56;;;20.11;100.00
12987;BME280;58897;51.960;5.582;2023-06-19T03:53:55;100596.59;;;20.00;100.00
12987;BME280;58897;51.960;5.582;2023-06-19T03:56:22;100606.66;;;20.06;100.00
12987;BME280;58897;51.960;5.582;2023-06-19T03:58:48;100605.75;;;19.94;100.00
12987;BME280;58897;51.960;5.582;2023-06-19T04:01:15;100606.19;;;20.09;100.00
12987;BME280;58897;51.960;5.582;2023-06-19T04:03:42;100605.66;;;20.00;100.00
12987;BME280;58897;51.960;5.582;2023-06-19T04:06:08;100617.88;;;20.04;100.00
12987;BME280;58897;51.960;5.582;2023-06-19T04:08:35;100613.16;;;19.93;100.00
12987;BME280;58897;51.960;5.582;2023-06-19T04:11:01;100619.31;;;20.07;100.00
12987;BME280;58897;51.960;5.582;2023-06-19T04:13:28;100614.84;;;19.94;100.00
12987;BME280;58897;51.960;5.582;2023-06-19T04:15:54;100620.47;;;19.99;100.00
12987;BME280;58897;51.960;5.582;2023-06-19T04:18:21;100622.72;;;19.84;100.00
12987;BME280;58897;51.960;5.582;2023-06-19T04:20:47;100630.94;;;20.02;100.00
12987;BME280;58897;51.960;5.582;2023-06-19T04:23:14;100635.22;;;19.98;100.00
12987;BME280;58897;51.960;5.582;2023-06-19T04:25:40;100637.56;;;19.95;100.00
12987;BME280;58897;51.960;5.582;2023-06-19T04:28:07;100641.41;;;19.94;100.00
12987;BME280;58897;51.960;5.582;2023-06-19T04:30:33;100647.72;;;19.94;100.00
12987;BME280;58897;51.960;5.582;2023-06-19T04:33:00;100657.84;;;19.94;100.00
12987;BME280;58897;51.960;5.582;2023-06-19T04:35:27;100659.81;;;19.87;100.00
12987;BME280;58897;51.960;5.582;2023-06-19T04:37:53;100665.06;;;19.70;100.00
12987;BME280;58897;51.960;5.582;2023-06-19T04:40:20;100685.88;;;19.78;100.00
12987;BME280;58897;51.960;5.582;2023-06-19T04:42:47;100668.41;;;19.72;100.00
12987;BME280;58897;51.960;5.582;2023-06-19T04:45:13;100687.66;;;19.47;100.00
12987;BME280;58897;51.960;5.582;2023-06-19T04:47:40;100686.88;;;19.58;100.00
12987;BME280;58897;51.960;5.582;2023-06-19T04:50:19;100688.78;;;19.58;100.00
12987;BME280;58897;51.960;5.582;2023-06-19T04:52:45;100688.56;;;19.59;100.00
12987;BME280;58897;51.960;5.582;2023-06-19T04:55:12;100694.63;;;19.43;100.00
12987;BME280;58897;51.960;5.582;2023-06-19T04:57:38;100692.75;;;19.62;100.00
12987;BME280;58897;51.960;5.582;2023-06-19T05:00:05;100695.63;;;19.49;100.00
12987;BME280;58897;51.960;5.582;2023-06-19T05:02:33;100697.97;;;19.45;100.00
12987;BME280;58897;51.960;5.582;2023-06-19T05:05:00;100701.94;;;19.49;100.00
12987;BME280;58897;51.960;5.582;2023-06-19T05:07:29;100705.06;;;19.53;100.00
12987;BME280;58897;51.960;5.582;2023-06-19T05:09:57;100700.41;;;19.53;100.00
12987;BME280;58897;51.960;5.582;2023-06-19T05:12:24;100703.25;;;19.47;100.00
12987;BME280;58897;51.960;5.582;2023-06-19T05:14:51;100714.28;;;19.58;100.00
12987;BME280;58897;51.960;5.582;2023-06-19T05:17:17;100712.97;;;19.86;100.00
12987;BME280;58897;51.960;5.582;2023-06-19T05:19:44;100703.75;;;19.80;100.00
12987;BME280;58897;51.960;5.582;2023-06-19T05:22:10;100697.75;;;19.90;100.00
12987;BME280;58897;51.960;5.582;2023-06-19T05:24:37;100707.72;;;20.02;100.00
12987;BME280;58897;51.960;5.582;2023-06-19T05:27:04;100707.78;;;19.78;100.00
12987;BME280;58897;51.960;5.582;2023-06-19T05:29:31;100712.34;;;19.65;100.00
12987;BME280;58897;51.960;5.582;2023-06-19T05:31:58;100713.44;;;19.83;100.00
12987;BME280;58897;51.960;5.582;2023-06-19T05:34:24;100717.16;;;19.88;100.00
12987;BME280;58897;51.960;5.582;2023-06-19T05:36:51;100702.31;;;19.96;100.00
12987;BME280;58897;51.960;5.582;2023-06-19T05:39:17;100712.28;;;20.08;100.00
12987;BME280;58897;51.960;5.582;2023-06-19T05:41:45;100704.16;;;20.02;100.00
12987;BME280;58897;51.960;5.582;2023-06-19T05:44:12;100707.38;;;20.35;100.00
12987;BME280;58897;51.960;5.582;2023-06-19T05:46:43;100714.34;;;20.49;100.00
12987;BME280;58897;51.960;5.582;2023-06-19T05:49:10;100710.78;;;20.49;100.00
12987;BME280;58897;51.960;5.582;2023-06-19T05:51:36;100711.25;;;20.46;100.00
12987;BME280;58897;51.960;5.582;2023-06-19T05:54:03;100703.06;;;20.57;100.00
12987;BME280;58897;51.960;5.582;2023-06-19T05:56:31;100708.75;;;20.74;100.00
12987;BME280;58897;51.960;5.582;2023-06-19T05:59:00;100704.63;;;20.35;100.00
12987;BME280;58897;51.960;5.582;2023-06-19T06:01:28;100721.31;;;20.52;100.00
12987;BME280;58897;51.960;5.582;2023-06-19T06:03:56;100717.41;;;20.89;100.00
12987;BME280;58897;51.960;5.582;2023-06-19T06:06:23;100715.16;;;20.98;100.00
12987;BME280;58897;51.960;5.582;2023-06-19T06:08:50;100721.09;;;21.13;100.00
12987;BME280;58897;51.960;5.582;2023-06-19T06:11:18;100716.59;;;21.00;100.00
12987;BME280;58897;51.960;5.582;2023-06-19T06:13:44;100719.44;;;20.93;100.00
12987;BME280;58897;51.960;5.582;2023-06-19T06:16:11;100737.44;;;21.08;100.00
12987;BME280;58897;51.960;5.582;2023-06-19T06:18:37;100732.69;;;20.85;100.00
12987;BME280;58897;51.960;5.582;2023-06-19T06:21:04;100736.97;;;21.11;100.00
12987;BME280;58897;51.960;5.582;2023-06-19T06:23:30;100737.13;;;20.98;100.00
12987;BME280;58897;51.960;5.582;2023-06-19T06:25:57;100745.03;;;21.06;100.00
12987;BME280;58897;51.960;5.582;2023-06-19T06:28:28;100745.47;;;21.21;100.00
12987;BME280;58897;51.960;5.582;2023-06-19T06:30:55;100752.25;;;20.88;100.00
12987;BME280;58897;51.960;5.582;2023-06-19T06:33:23;100756.25;;;20.74;100.00
12987;BME280;58897;51.960;5.582;2023-06-19T06:35:49;100748.88;;;20.75;100.00
12987;BME280;58897;51.960;5.582;2023-06-19T06:38:17;100753.44;;;20.63;100.00
12987;BME280;58897;51.960;5.582;2023-06-19T06:40:44;100757.31;;;20.73;100.00
12987;BME280;58897;51.960;5.582;2023-06-19T06:43:10;100750.97;;;20.73;100.00
12987;BME280;58897;51.960;5.582;2023-06-19T06:45:37;100755.94;;;20.82;100.00
12987;BME280;58897;51.960;5.582;2023-06-19T06:48:09;100746.56;;;21.02;100.00
12987;BME280;58897;51.960;5.582;2023-06-19T06:50:36;100760.66;;;21.23;100.00
12987;BME280;58897;51.960;5.582;2023-06-19T06:53:02;100764.38;;;21.29;100.00
12987;BME280;58897;51.960;5.582;2023-06-19T06:55:29;100766.19;;;21.35;100.00
12987;BME280;58897;51.960;5.582;2023-06-19T06:57:55;100766.66;;;21.32;100.00
12987;BME280;58897;51.960;5.582;2023-06-19T07:00:22;100768.63;;;21.25;100.00
12987;BME280;58897;51.960;5.582;2023-06-19T07:02:49;100774.13;;;21.25;100.00
12987;BME280;58897;51.960;5.582;2023-06-19T07:05:17;100779.94;;;21.35;100.00
12987;BME280;58897;51.960;5.582;2023-06-19T07:07:44;100787.28;;;21.05;100.00
12987;BME280;58897;51.960;5.582;2023-06-19T07:10:11;100792.44;;;21.31;100.00
12987;BME280;58897;51.960;5.582;2023-06-19T07:12:45;100795.34;;;21.06;100.00
12987;BME280;58897;51.960;5.582;2023-06-19T07:15:12;100796.75;;;22.14;100.00
12987;BME280;58897;51.960;5.582;2023-06-19T07:17:38;100804.50;;;22.52;100.00
12987;BME280;58897;51.960;5.582;2023-06-19T07:20:05;100809.09;;;22.24;100.00
12987;BME280;58897;51.960;5.582;2023-06-19T07:22:32;100814.88;;;23.13;100.00
12987;BME280;58897;51.960;5.582;2023-06-19T07:24:59;100819.41;;;22.91;100.00
12987;BME280;58897;51.960;5.582;2023-06-19T07:27:26;100827.38;;;22.06;100.00
12987;BME280;58897;51.960;5.582;2023-06-19T07:29:54;100825.19;;;21.85;100.00
12987;BME280;58897;51.960;5.582;2023-06-19T07:32:20;100832.38;;;21.86;100.00
12987;BME280;58897;51.960;5.582;2023-06-19T07:34:47;100834.50;;;21.84;100.00
12987;BME280;58897;51.960;5.582;2023-06-19T07:37:14;100836.75;;;21.76;100.00
12987;BME280;58897;51.960;5.582;2023-06-19T07:39:48;100827.31;;;22.76;100.00
12987;BME280;58897;51.960;5.582;2023-06-19T07:42:17;100832.13;;;22.81;100.00
12987;BME280;58897;51.960;5.582;2023-06-19T07:44:45;100837.88;;;22.56;100.00
12987;BME280;58897;51.960;5.582;2023-06-19T07:47:12;100849.13;;;22.66;100.00
12987;BME280;58897;51.960;5.582;2023-06-19T07:49:39;100844.59;;;22.48;100.00
12987;BME280;58897;51.960;5.582;2023-06-19T07:52:07;100848.44;;;22.36;100.00
12987;BME280;58897;51.960;5.582;2023-06-19T07:54:36;100851.56;;;22.28;100.00
12987;BME280;58897;51.960;5.582;2023-06-19T07:57:03;100866.84;;;21.59;100.00
12987;BME280;58897;51.960;5.582;2023-06-19T07:59:29;100872.81;;;22.09;100.00
12987;BME280;58897;51.960;5.582;2023-06-19T08:01:56;100873.81;;;22.03;100.00
12987;BME280;58897;51.960;5.582;2023-06-19T08:04:22;100878.69;;;22.12;100.00
12987;BME280;58897;51.960;5.582;2023-06-19T08:06:49;100877.53;;;22.66;100.00
12987;BME280;58897;51.960;5.582;2023-06-19T08:09:16;100870.16;;;23.07;100.00
12987;BME280;58897;51.960;5.582;2023-06-19T08:11:42;100863.88;;;23.23;100.00
12987;BME280;58897;51.960;5.582;2023-06-19T08:14:09;100867.63;;;23.33;100.00
12987;BME280;58897;51.960;5.582;2023-06-19T08:16:35;100874.50;;;22.22;100.00
12987;BME280;58897;51.960;5.582;2023-06-19T08:19:02;100872.13;;;22.83;100.00
12987;BME280;58897;51.960;5.582;2023-06-19T08:21:28;100868.09;;;22.62;100.00
12987;BME280;58897;51.960;5.582;2023-06-19T08:23:55;100870.66;;;22.92;100.00
12987;BME280;58897;51.960;5.582;2023-06-19T08:26:22;100879.63;;;23.39;100.00
12987;BME280;58897;51.960;5.582;2023-06-19T08:28:48;100879.63;;;22.88;100.00
12987;BME280;58897;51.960;5.582;2023-06-19T08:31:15;100878.25;;;23.13;100.00
12987;BME280;58897;51.960;5.582;2023-06-19T08:33:43;100887.09;;;24.00;100.00
12987;BME280;58897;51.960;5.582;2023-06-19T08:36:09;100887.47;;;23.75;100.00
12987;BME280;58897;51.960;5.582;2023-06-19T08:38:36;100890.97;;;24.32;100.00
12987;BME280;58897;51.960;5.582;2023-06-19T08:41:03;100899.06;;;24.22;100.00
12987;BME280;58897;51.960;5.582;2023-06-19T08:43:29;100906.44;;;24.17;100.00
12987;BME280;58897;51.960;5.582;2023-06-19T08:46:09;100908.28;;;24.11;100.00
12987;BME280;58897;51.960;5.582;2023-06-19T08:48:37;100915.13;;;23.80;100.00
12987;BME280;58897;51.960;5.582;2023-06-19T08:51:04;100910.91;;;23.89;100.00
12987;BME280;58897;51.960;5.582;2023-06-19T08:53:35;100899.34;;;24.92;100.00
12987;BME280;58897;51.960;5.582;2023-06-19T08:56:03;100898.72;;;24.35;100.00
12987;BME280;58897;51.960;5.582;2023-06-19T08:58:30;100899.06;;;25.59;100.00
12987;BME280;58897;51.960;5.582;2023-06-19T09:00:59;100897.84;;;25.76;100.00
12987;BME280;58897;51.960;5.582;2023-06-19T09:03:26;100895.41;;;25.53;100.00
12987;BME280;58897;51.960;5.582;2023-06-19T09:05:53;100898.59;;;25.45;100.00
12987;BME280;58897;51.960;5.582;2023-06-19T09:08:20;100908.25;;;24.61;100.00
12987;BME280;58897;51.960;5.582;2023-06-19T09:10:58;100896.59;;;24.76;100.00
12987;BME280;58897;51.960;5.582;2023-06-19T09:13:25;100915.75;;;25.69;100.00
12987;BME280;58897;51.960;5.582;2023-06-19T09:16:06;100911.19;;;25.58;100.00
12987;BME280;58897;51.960;5.582;2023-06-19T09:18:44;100919.16;;;24.34;100.00
12987;BME280;58897;51.960;5.582;2023-06-19T09:21:21;100916.28;;;23.68;100.00
12987;BME280;58897;51.960;5.582;2023-06-19T09:23:51;100917.25;;;25.11;100.00
12987;BME280;58897;51.960;5.582;2023-06-19T09:26:18;100930.56;;;25.85;100.00
12987;BME280;58897;51.960;5.582;2023-06-19T09:28:46;100923.59;;;25.77;100.00
12987;BME280;58897;51.960;5.582;2023-06-19T09:31:13;100927.31;;;25.39;100.00
12987;BME280;58897;51.960;5.582;2023-06-19T09:33:41;100942.78;;;25.40;100.00
12987;BME280;58897;51.960;5.582;2023-06-19T09:36:08;100951.47;;;25.27;100.00
12987;BME280;58897;51.960;5.582;2023-06-19T09:38:36;100951.28;;;24.24;100.00
12987;BME280;58897;51.960;5.582;2023-06-19T09:41:07;100954.44;;;25.21;100.00
12987;BME280;58897;51.960;5.582;2023-06-19T09:43:39;100970.38;;;26.32;100.00
12987;BME280;58897;51.960;5.582;2023-06-19T09:46:06;100949.31;;;27.72;100.00
12987;BME280;58897;51.960;5.582;2023-06-19T09:48:34;100953.03;;;27.35;100.00
12987;BME280;58897;51.960;5.582;2023-06-19T09:53:47;100956.75;;;27.51;100.00
12987;BME280;58897;51.960;5.582;2023-06-19T09:56:14;100945.53;;;28.53;97.69
12987;BME280;58897;51.960;5.582;2023-06-19T09:58:45;100956.19;;;27.54;93.97
12987;BME280;58897;51.960;5.582;2023-06-19T10:01:12;100956.06;;;27.24;100.00
12987;BME280;58897;51.960;5.582;2023-06-19T10:03:40;100965.53;;;26.86;100.00
12987;BME280;58897;51.960;5.582;2023-06-19T10:06:13;100964.09;;;27.25;100.00
12987;BME280;58897;51.960;5.582;2023-06-19T10:08:43;100967.09;;;26.72;100.00
12987;BME280;58897;51.960;5.582;2023-06-19T10:11:10;100963.72;;;26.70;100.00
12987;BME280;58897;51.960;5.582;2023-06-19T10:13:39;100964.88;;;27.16;100.00
12987;BME280;58897;51.960;5.582;2023-06-19T10:16:07;100961.69;;;26.23;100.00
12987;BME280;58897;51.960;5.582;2023-06-19T10:18:54;100964.38;;;25.22;100.00
12987;BME280;58897;51.960;5.582;2023-06-19T10:21:22;100961.81;;;26.38;100.00
12987;BME280;58897;51.960;5.582;2023-06-19T10:23:56;100956.13;;;26.50;100.00
12987;BME280;58897;51.960;5.582;2023-06-19T10:26:33;100968.91;;;26.88;100.00
12987;BME280;58897;51.960;5.582;2023-06-19T10:29:00;100950.22;;;27.20;100.00
12987;BME280;58897;51.960;5.582;2023-06-19T10:31:27;100957.00;;;27.44;100.00
12987;BME280;58897;51.960;5.582;2023-06-19T10:33:55;100958.56;;;27.25;100.00
12987;BME280;58897;51.960;5.582;2023-06-19T10:36:22;100954.81;;;27.56;100.00
12987;BME280;58897;51.960;5.582;2023-06-19T10:38:51;100951.56;;;27.90;100.00
12987;BME280;58897;51.960;5.582;2023-06-19T10:41:20;100952.75;;;28.09;99.20
12987;BME280;58897;51.960;5.582;2023-06-19T10:46:31;100950.13;;;27.62;100.00
12987;BME280;58897;51.960;5.582;2023-06-19T10:49:00;100945.50;;;28.03;98.75
12987;BME280;58897;51.960;5.582;2023-06-19T10:51:28;100951.22;;;27.56;95.14
12987;BME280;58897;51.960;5.582;2023-06-19T10:53:55;100951.94;;;26.48;100.00
12987;BME280;58897;51.960;5.582;2023-06-19T10:56:24;100954.03;;;27.09;100.00
12987;BME280;58897;51.960;5.582;2023-06-19T10:59:01;100956.00;;;26.72;100.00
12987;BME280;58897;51.960;5.582;2023-06-19T11:01:48;100950.31;;;26.88;100.00
12987;BME280;58897;51.960;5.582;2023-06-19T11:04:15;100954.81;;;26.63;100.00
12987;BME280;58897;51.960;5.582;2023-06-19T11:06:43;100951.53;;;26.07;100.00
12987;BME280;58897;51.960;5.582;2023-06-19T11:09:12;100953.56;;;26.12;100.00
12987;BME280;58897;51.960;5.582;2023-06-19T11:11:46;100954.63;;;27.11;100.00
12987;BME280;58897;51.960;5.582;2023-06-19T11:14:15;100945.94;;;27.49;100.00
12987;BME280;58897;51.960;5.582;2023-06-19T11:16:46;100954.09;;;27.96;98.56
12987;BME280;58897;51.960;5.582;2023-06-19T11:19:21;100949.03;;;27.68;98.36
12987;BME280;58897;51.960;5.582;2023-06-19T11:21:51;100945.09;;;27.54;99.59
12987;BME280;58897;51.960;5.582;2023-06-19T11:24:18;100953.47;;;27.74;97.87
12987;BME280;58897;51.960;5.582;2023-06-19T11:26:47;100960.63;;;26.93;100.00
12987;BME280;58897;51.960;5.582;2023-06-19T11:29:25;100959.84;;;26.66;100.00
12987;BME280;58897;51.960;5.582;2023-06-19T11:32:05;100961.94;;;26.49;100.00
12987;BME280;58897;51.960;5.582;2023-06-19T11:34:36;100958.94;;;25.97;100.00
12987;BME280;58897;51.960;5.582;2023-06-19T11:37:13;100961.72;;;26.97;100.00
12987;BME280;58897;51.960;5.582;2023-06-19T11:39:43;100964.75;;;26.90;100.00
12987;BME280;58897;51.960;5.582;2023-06-19T11:42:09;100955.78;;;27.30;100.00
12987;BME280;58897;51.960;5.582;2023-06-19T11:44:52;100962.41;;;27.91;92.08
12987;BME280;58897;51.960;5.582;2023-06-19T11:47:19;100960.38;;;27.56;96.12
12987;BME280;58897;51.960;5.582;2023-06-19T11:49:50;100950.63;;;27.49;96.16
12987;BME280;58897;51.960;5.582;2023-06-19T11:52:17;100959.53;;;27.04;97.57
12987;BME280;58897;51.960;5.582;2023-06-19T11:54:43;100962.63;;;27.08;100.00
12987;BME280;58897;51.960;5.582;2023-06-19T11:57:11;100953.53;;;27.84;94.48
12987;BME280;58897;51.960;5.582;2023-06-19T11:59:39;100948.88;;;28.86;90.75
12987;BME280;58897;51.960;5.582;2023-06-19T12:02:08;100953.03;;;28.23;85.45
12987;BME280;58897;51.960;5.582;2023-06-19T12:04:35;100949.00;;;27.53;92.77
12987;BME280;58897;51.960;5.582;2023-06-19T12:07:02;100946.94;;;28.31;92.53
12987;BME280;58897;51.960;5.582;2023-06-19T12:09:30;100936.38;;;28.33;88.32
12987;BME280;58897;51.960;5.582;2023-06-19T12:12:01;100941.91;;;28.83;86.98
12987;BME280;58897;51.960;5.582;2023-06-19T12:14:27;100943.03;;;28.57;87.38
12987;BME280;58897;51.960;5.582;2023-06-19T12:16:54;100935.50;;;28.88;86.06
12987;BME280;58897;51.960;5.582;2023-06-19T12:19:21;100940.78;;;28.84;85.53
12987;BME280;58897;51.960;5.582;2023-06-19T12:21:47;100941.53;;;29.30;82.62
12987;BME280;58897;51.960;5.582;2023-06-19T12:24:14;100941.56;;;29.74;79.17
12987;BME280;58897;51.960;5.582;2023-06-19T12:26:41;100940.81;;;29.58;77.60
12987;BME280;58897;51.960;5.582;2023-06-19T12:29:07;100932.44;;;28.84;76.39
12987;BME280;58897;51.960;5.582;2023-06-19T12:31:34;100934.44;;;28.43;83.57
12987;BME280;58897;51.960;5.582;2023-06-19T12:34:03;100931.38;;;28.70;82.06
12987;BME280;58897;51.960;5.582;2023-06-19T12:36:50;100938.03;;;28.74;79.74
12987;BME280;58897;51.960;5.582;2023-06-19T12:39:16;100940.25;;;28.22;82.86
12987;BME280;58897;51.960;5.582;2023-06-19T12:41:43;100945.25;;;28.20;81.74
12987;BME280;58897;51.960;5.582;2023-06-19T12:44:10;100940.00;;;28.38;78.92
12987;BME280;58897;51.960;5.582;2023-06-19T12:46:36;100945.44;;;29.14;75.17
12987;BME280;58897;51.960;5.582;2023-06-19T12:49:03;100941.94;;;28.73;72.90
12987;BME280;58897;51.960;5.582;2023-06-19T12:51:30;100944.13;;;28.56;70.93